Impacts TAF Board INFO
FOR SITUATIONAL AWARENESS. NOT TO BE USED FOR FLIGHT PLANNING PURPOSES.
IDs:

KCLE - Cleveland/Hopkins In, OH, US

Issued at 2340 UTC 24 Feb 2018
Updated at 0151 UTC 25 Feb 2018
Potential Impact None Slight Moderate High
Time0051Z 25/02Z 25/03Z 25/04Z 25/05Z 25/06Z 25/07Z 25/08Z 25/09Z 25/10Z 25/11Z 25/12Z 25/13Z 25/14Z>>
Type OBS PRVL PRVL PRVL PRVL PRVL PRVL PRVL PRVL PRVL PRVL PRVL PRVL PRVL
VIS 10 >6 4 4 3 3 3 5 5 5 5 5 6 6
CIG 6 10 8 8 8 8 8 12 12 12 12 12 25 25
Cover OVC OVC OVC OVC OVC OVC OVC OVC OVC OVC OVC OVC OVC OVC
FltCat IFR MVFR IFR IFR IFR IFR IFR MVFR MVFR MVFR MVFR MVFR MVFR MVFR
WX -- -- RA BR RA BR RA VCTS RA VCTS RA VCTS -SHRA BR -SHRA BR -SHRA BR -SHRA BR -SHRA BR -SHRA BR -SHRA BR
WDir 60 80 90 90 120 120 120 180 180 180 180 180 230 230
WSpd 5 8 10 10 12 12 12 14 14 14 14 14 20 20
WGst -- -- -- -- -- -- -- 22 22 22 22 22 30 30

Raw TAF
KCLE 242340Z 2500/2606 08008KT P6SM OVC010
  TEMPO 2500/2502 OVC009
  FM250300 09010KT 4SM RA BR OVC008
  FM250500 12012KT 3SM RA VCTS OVC008CB
  FM250800 18014G22KT 5SM -SHRA BR BKN012 OVC035
  FM251300 23020G30KT 6SM -SHRA BR SCT010 OVC025
  FM251600 25018G28KT P6SM SCT035
  FM260200 24012KT P6SM FEW250


Raw METAR
KCLE 250051Z 06005KT 10SM OVC006 05/03 A3001 RMK AO2 SLP169 T00500028 $
KCLE 242351Z 04005KT 10SM OVC008 04/02 A3006 RMK AO2 SLP184 60000 T00440022 10056 20033 58009 $
KCLE 242251Z 04008KT 10SM OVC010 04/02 A3009 RMK AO2 SLP195 T00440017 $

METAR Board
Radar Display
Forecast Discussion

FOR SITUATIONAL AWARENESS. NOT TO BE USED FOR FLIGHT PLANNING PURPOSES.